PWSweather.com
Personal Weather Stations
Station Observations

PoschiavoCH

Lat: 46.31962499999999, Lon: 10.066551000000004

Elevation: 3517

Station Type: WH 1080

http://www.meteoposchiavo.com

High Low Average
Temperature 51.0°F10.6°C 32.0°F0.0°C 39.1°F3.9°C
Dew Point 35.5°F1.9°C 8.7°F-12.9°C 17.6°F-8.0°C
Winds 6.9 mph 11.1 kmh Calm Calm 1.0 mph SSE1.6 kmh SSE
Wind Gusts 11.5 mph18.5 kmh -- 2.0 mph3.2 kmh
Humidity 91% 21% 46%
Pressure 26.68 in903.5 mb 26.38 in893.3 mb -
Precipitation 0.06 in1.5 mm - -
Hour Temp Dew Point Humidity Winds Wind Gusts Pressure Precip Precip Rate Daily Precip Total
12:00 AM 39.6°F4.2°C 35.5°F1.9°C 85% 1.2 mph NE1.9 kmh NE 3.5 mph5.6 kmh 26.38 in893.3 mb - 0.03 in0.8 mm 0.03 in0.8 mm
12:10 AM 38.0°F3.3°C 34.5°F1.4°C 87% Calm Calm 1.2 mph1.9 kmh 26.39 in893.7 mb - 0.04 in1.0 mm 0.01 in0.3 mm
12:15 AM 37.0°F2.8°C 34.1°F1.2°C 89% Calm Calm -- 26.40 in894.0 mb - 0.04 in1.0 mm 0.01 in0.3 mm
12:20 AM 37.0°F2.8°C 33.2°F0.7°C 86% 3.5 mph E5.6 kmh E 6.9 mph11.1 kmh 26.40 in894.0 mb - 0.04 in1.0 mm 0.01 in0.3 mm
12:25 AM 37.0°F2.8°C 33.5°F0.8°C 87% 1.2 mph NE1.9 kmh NE 2.3 mph3.7 kmh 26.41 in894.3 mb - 0.05 in1.3 mm 0.02 in0.5 mm
12:30 AM 36.0°F2.2°C 32.5°F0.3°C 87% 1.2 mph ENE1.9 kmh ENE 1.2 mph1.9 kmh 26.41 in894.3 mb - 0.05 in1.3 mm 0.02 in0.5 mm
12:35 AM 35.0°F1.7°C 31.8°F-0.1°C 88% Calm Calm 1.2 mph1.9 kmh 26.42 in894.7 mb - 0.04 in1.0 mm 0.02 in0.5 mm
12:40 AM 35.0°F1.7°C 32.6°F0.3°C 91% 2.3 mph NE3.7 kmh NE 2.3 mph3.7 kmh 26.42 in894.7 mb - 0.05 in1.3 mm 0.03 in0.8 mm
12:45 AM 35.0°F1.7°C 32.1°F0.1°C 89% 1.2 mph ESE1.9 kmh ESE 1.2 mph1.9 kmh 26.42 in894.7 mb - 0.05 in1.3 mm 0.03 in0.8 mm
12:50 AM 35.0°F1.7°C 32.1°F0.1°C 89% 1.2 mph SE1.9 kmh SE 1.2 mph1.9 kmh 26.42 in894.7 mb - 0.04 in1.0 mm 0.03 in0.8 mm
12:55 AM 35.0°F1.7°C 32.1°F0.1°C 89% 1.2 mph S1.9 kmh S 1.2 mph1.9 kmh 26.42 in894.7 mb - 0.03 in0.8 mm 0.03 in0.8 mm
01:00 AM 34.0°F1.1°C 31.1°F-0.5°C 89% 2.3 mph ENE3.7 kmh ENE 3.5 mph5.6 kmh 26.43 in895.0 mb - 0.03 in0.8 mm 0.03 in0.8 mm
01:10 AM 34.0°F1.1°C 31.1°F-0.5°C 89% 2.3 mph S3.7 kmh S 3.5 mph5.6 kmh 26.42 in894.7 mb - 0.02 in0.5 mm 0.03 in0.8 mm
01:15 AM 35.0°F1.7°C 30.7°F-0.7°C 84% Calm Calm 1.2 mph1.9 kmh 26.43 in895.0 mb - 0.02 in0.5 mm 0.03 in0.8 mm
01:20 AM 35.0°F1.7°C 31.2°F-0.4°C 86% Calm Calm -- 26.43 in895.0 mb - 0.02 in0.5 mm 0.03 in0.8 mm
01:25 AM 35.0°F1.7°C 30.7°F-0.7°C 84% Calm Calm 1.2 mph1.9 kmh 26.43 in895.0 mb - 0.02 in0.5 mm 0.04 in1.0 mm
01:30 AM 35.0°F1.7°C 30.1°F-1.1°C 82% 1.2 mph NW1.9 kmh NW 1.2 mph1.9 kmh 26.44 in895.4 mb - 0.02 in0.5 mm 0.04 in1.0 mm
01:35 AM 35.0°F1.7°C 30.4°F-0.9°C 83% 2.3 mph SSW3.7 kmh SSW 3.5 mph5.6 kmh 26.43 in895.0 mb - 0.02 in0.5 mm 0.04 in1.0 mm
01:40 AM 35.0°F1.7°C 30.7°F-0.7°C 84% 1.2 mph S1.9 kmh S 3.5 mph5.6 kmh 26.43 in895.0 mb - 0.01 in0.3 mm 0.04 in1.0 mm
01:45 AM 35.0°F1.7°C 30.9°F-0.6°C 85% Calm Calm 1.2 mph1.9 kmh 26.44 in895.4 mb - 0.01 in0.3 mm 0.04 in1.0 mm
01:50 AM 34.0°F1.1°C 30.8°F-0.7°C 88% 1.2 mph S1.9 kmh S 2.3 mph3.7 kmh 26.45 in895.7 mb - 0.01 in0.3 mm 0.04 in1.0 mm
01:55 AM 33.0°F0.6°C 30.4°F-0.9°C 90% Calm Calm 1.2 mph1.9 kmh 26.46 in896.0 mb - 0.01 in0.3 mm 0.04 in1.0 mm
02:00 AM 33.0°F0.6°C 29.8°F-1.2°C 88% Calm Calm -- 26.46 in896.0 mb - 0.01 in0.3 mm 0.04 in1.0 mm
02:10 AM 33.0°F0.6°C 29.3°F-1.5°C 86% 2.3 mph S3.7 kmh S 3.5 mph5.6 kmh 26.47 in896.4 mb - 0.01 in0.3 mm 0.04 in1.0 mm
02:15 AM 33.0°F0.6°C 29.8°F-1.2°C 88% 1.2 mph S1.9 kmh S 2.3 mph3.7 kmh 26.47 in896.4 mb - 0.01 in0.3 mm 0.04 in1.0 mm
02:20 AM 32.0°F0.0°C 29.1°F-1.6°C 89% 2.3 mph SW3.7 kmh SW 3.5 mph5.6 kmh 26.48 in896.7 mb - 0.01 in0.3 mm 0.04 in1.0 mm
02:25 AM 32.0°F0.0°C 29.4°F-1.4°C 90% 1.2 mph N1.9 kmh N 3.5 mph5.6 kmh 26.48 in896.7 mb - 0.00 in0.0 mm 0.04 in1.0 mm
02:30 AM 32.0°F0.0°C 29.4°F-1.4°C 90% 1.2 mph NE1.9 kmh NE 1.2 mph1.9 kmh 26.48 in896.7 mb - 0.00 in0.0 mm 0.04 in1.0 mm
02:35 AM 32.0°F0.0°C 29.4°F-1.4°C 90% Calm Calm -- 26.47 in896.4 mb - 0.00 in0.0 mm 0.04 in1.0 mm
02:40 AM 32.0°F0.0°C 29.1°F-1.6°C 89% 1.2 mph NE1.9 kmh NE 1.2 mph1.9 kmh 26.48 in896.7 mb - 0.00 in0.0 mm 0.04 in1.0 mm
02:45 AM 32.0°F0.0°C 28.8°F-1.8°C 88% Calm Calm -- 26.49 in897.1 mb - 0.00 in0.0 mm 0.04 in1.0 mm
02:50 AM 32.0°F0.0°C 28.3°F-2.1°C 86% Calm Calm -- 26.49 in897.1 mb - 0.00 in0.0 mm 0.04 in1.0 mm
02:55 AM 32.0°F0.0°C 26.8°F-2.9°C 81% 1.2 mph NNE1.9 kmh NNE 3.5 mph5.6 kmh 26.48 in896.7 mb - 0.00 in0.0 mm 0.04 in1.0 mm
03:00 AM 32.0°F0.0°C 25.9°F-3.4°C 78% 3.5 mph NW5.6 kmh NW 5.8 mph9.3 kmh 26.49 in897.1 mb - 0.00 in0.0 mm 0.04 in1.0 mm
03:10 AM 33.0°F0.6°C 27.2°F-2.7°C 79% Calm Calm -- 26.49 in897.1 mb - 0.00 in0.0 mm 0.04 in1.0 mm
03:15 AM 33.0°F0.6°C 26.3°F-3.2°C 76% 1.2 mph NNE1.9 kmh NNE 1.2 mph1.9 kmh 26.49 in897.1 mb - 0.00 in0.0 mm 0.04 in1.0 mm
03:20 AM 33.0°F0.6°C 25.9°F-3.4°C 75% 1.2 mph NE1.9 kmh NE 6.9 mph11.1 kmh 26.49 in897.1 mb - 0.00 in0.0 mm 0.04 in1.0 mm
03:25 AM 33.0°F0.6°C 25.3°F-3.7°C 73% 3.5 mph WSW5.6 kmh WSW 6.9 mph11.1 kmh 26.49 in897.1 mb - 0.00 in0.0 mm 0.04 in1.0 mm
03:30 AM 33.0°F0.6°C 26.6°F-3.0°C 77% Calm Calm 1.2 mph1.9 kmh 26.49 in897.1 mb - 0.00 in0.0 mm 0.04 in1.0 mm
03:35 AM 33.0°F0.6°C 26.3°F-3.2°C 76% Calm Calm -- 26.49 in897.1 mb - 0.00 in0.0 mm 0.04 in1.0 mm
03:40 AM 33.0°F0.6°C 26.6°F-3.0°C 77% Calm Calm -- 26.49 in897.1 mb - 0.00 in0.0 mm 0.04 in1.0 mm
03:45 AM 33.0°F0.6°C 25.3°F-3.7°C 73% 1.2 mph NW1.9 kmh NW 1.2 mph1.9 kmh 26.48 in896.7 mb - 0.00 in0.0 mm 0.04 in1.0 mm
03:50 AM 33.0°F0.6°C 25.3°F-3.7°C 73% 1.2 mph WNW1.9 kmh WNW 1.2 mph1.9 kmh 26.48 in896.7 mb - 0.00 in0.0 mm 0.04 in1.0 mm
03:55 AM 33.0°F0.6°C 24.6°F-4.1°C 71% 2.3 mph WNW3.7 kmh WNW 2.3 mph3.7 kmh 26.50 in897.4 mb - 0.00 in0.0 mm 0.04 in1.0 mm
04:00 AM 33.0°F0.6°C 23.2°F-4.9°C 67% 2.3 mph WSW3.7 kmh WSW 2.3 mph3.7 kmh 26.49 in897.1 mb - 0.00 in0.0 mm 0.04 in1.0 mm
04:10 AM 33.0°F0.6°C 24.6°F-4.1°C 71% Calm Calm -- 26.49 in897.1 mb - 0.00 in0.0 mm 0.04 in1.0 mm
04:15 AM 33.0°F0.6°C 23.6°F-4.7°C 68% Calm Calm -- 26.49 in897.1 mb - 0.00 in0.0 mm 0.04 in1.0 mm
04:20 AM 33.0°F0.6°C 24.6°F-4.1°C 71% 1.2 mph NE1.9 kmh NE 1.2 mph1.9 kmh 26.49 in897.1 mb - 0.00 in0.0 mm 0.04 in1.0 mm
04:25 AM 33.0°F0.6°C 24.6°F-4.1°C 71% 1.2 mph NE1.9 kmh NE 2.3 mph3.7 kmh 26.50 in897.4 mb - 0.00 in0.0 mm 0.04 in1.0 mm
04:30 AM 33.0°F0.6°C 23.6°F-4.7°C 68% 1.2 mph NW1.9 kmh NW 1.2 mph1.9 kmh 26.51 in897.7 mb - 0.00 in0.0 mm 0.04 in1.0 mm
04:35 AM 33.0°F0.6°C 23.2°F-4.9°C 67% Calm Calm 1.2 mph1.9 kmh 26.50 in897.4 mb - 0.00 in0.0 mm 0.04 in1.0 mm
04:40 AM 33.0°F0.6°C 24.3°F-4.3°C 70% Calm Calm -- 26.49 in897.1 mb - 0.00 in0.0 mm 0.04 in1.0 mm
04:45 AM 33.0°F0.6°C 23.2°F-4.9°C 67% 1.2 mph WNW1.9 kmh WNW 2.3 mph3.7 kmh 26.49 in897.1 mb - 0.00 in0.0 mm 0.04 in1.0 mm
04:50 AM 33.0°F0.6°C 23.2°F-4.9°C 67% 1.2 mph NNW1.9 kmh NNW 1.2 mph1.9 kmh 26.50 in897.4 mb - 0.00 in0.0 mm 0.04 in1.0 mm
04:55 AM 33.5°F0.8°C 22.3°F-5.4°C 63% 1.2 mph NW1.9 kmh NW 2.3 mph3.7 kmh 26.50 in897.4 mb - 0.00 in0.0 mm 0.04 in1.0 mm
05:00 AM 34.0°F1.1°C 21.6°F-5.8°C 60% 2.3 mph NW3.7 kmh NW 2.3 mph3.7 kmh 26.51 in897.7 mb - 0.00 in0.0 mm 0.04 in1.0 mm
05:10 AM 34.0°F1.1°C 21.2°F-6.0°C 59% 1.2 mph WNW1.9 kmh WNW 2.3 mph3.7 kmh 26.50 in897.4 mb - 0.00 in0.0 mm 0.04 in1.0 mm
05:15 AM 34.0°F1.1°C 22.7°F-5.2°C 63% 1.2 mph ESE1.9 kmh ESE 1.2 mph1.9 kmh 26.50 in897.4 mb - 0.00 in0.0 mm 0.04 in1.0 mm
05:20 AM 34.0°F1.1°C 23.5°F-4.7°C 65% Calm Calm -- 26.50 in897.4 mb - 0.00 in0.0 mm 0.04 in1.0 mm
05:25 AM 34.0°F1.1°C 23.8°F-4.6°C 66% 1.2 mph ENE1.9 kmh ENE 2.3 mph3.7 kmh 26.50 in897.4 mb - 0.00 in0.0 mm 0.04 in1.0 mm
05:30 AM 34.0°F1.1°C 23.8°F-4.6°C 66% 1.2 mph NNE1.9 kmh NNE 1.2 mph1.9 kmh 26.49 in897.1 mb - 0.00 in0.0 mm 0.04 in1.0 mm
05:35 AM 33.0°F0.6°C 22.9°F-5.1°C 66% Calm Calm -- 26.49 in897.1 mb - 0.00 in0.0 mm 0.04 in1.0 mm
05:40 AM 34.0°F1.1°C 23.1°F-4.9°C 64% Calm Calm -- 26.49 in897.1 mb - 0.00 in0.0 mm 0.04 in1.0 mm
05:45 AM 34.0°F1.1°C 22.3°F-5.4°C 62% Calm Calm -- 26.49 in897.1 mb - 0.00 in0.0 mm 0.04 in1.0 mm
05:50 AM 34.0°F1.1°C 21.6°F-5.8°C 60% Calm Calm -- 26.49 in897.1 mb - 0.00 in0.0 mm 0.04 in1.0 mm
05:55 AM 34.0°F1.1°C 23.1°F-4.9°C 64% Calm Calm -- 26.49 in897.1 mb - 0.00 in0.0 mm 0.04 in1.0 mm
06:00 AM 34.0°F1.1°C 23.1°F-4.9°C 64% 1.2 mph NE1.9 kmh NE 1.2 mph1.9 kmh 26.49 in897.1 mb - 0.00 in0.0 mm 0.04 in1.0 mm
06:10 AM 34.0°F1.1°C 23.1°F-4.9°C 64% Calm Calm -- 26.49 in897.1 mb - 0.00 in0.0 mm 0.04 in1.0 mm
06:15 AM 34.0°F1.1°C 22.0°F-5.6°C 61% Calm Calm 1.2 mph1.9 kmh 26.50 in897.4 mb - 0.00 in0.0 mm 0.04 in1.0 mm
06:20 AM 34.0°F1.1°C 21.6°F-5.8°C 60% Calm Calm -- 26.49 in897.1 mb - 0.00 in0.0 mm 0.04 in1.0 mm
06:25 AM 34.0°F1.1°C 22.0°F-5.6°C 61% Calm Calm -- 26.49 in897.1 mb - 0.00 in0.0 mm 0.04 in1.0 mm
06:30 AM 34.0°F1.1°C 21.6°F-5.8°C 60% Calm Calm 1.2 mph1.9 kmh 26.49 in897.1 mb - 0.00 in0.0 mm 0.04 in1.0 mm
06:35 AM 34.0°F1.1°C 21.2°F-6.0°C 59% Calm Calm 1.2 mph1.9 kmh 26.49 in897.1 mb - 0.00 in0.0 mm 0.04 in1.0 mm
06:40 AM 34.0°F1.1°C 20.8°F-6.2°C 58% Calm Calm -- 26.50 in897.4 mb - 0.00 in0.0 mm 0.04 in1.0 mm
06:45 AM 34.0°F1.1°C 21.6°F-5.8°C 60% 1.2 mph NE1.9 kmh NE 2.3 mph3.7 kmh 26.49 in897.1 mb - 0.00 in0.0 mm 0.04 in1.0 mm
06:50 AM 34.0°F1.1°C 22.0°F-5.6°C 61% Calm Calm -- 26.49 in897.1 mb - 0.00 in0.0 mm 0.04 in1.0 mm
06:55 AM 35.0°F1.7°C 22.1°F-5.5°C 59% Calm Calm -- 26.50 in897.4 mb - 0.00 in0.0 mm 0.04 in1.0 mm
07:00 AM 34.0°F1.1°C 21.6°F-5.8°C 60% 1.2 mph ENE1.9 kmh ENE 1.2 mph1.9 kmh 26.49 in897.1 mb - 0.00 in0.0 mm 0.04 in1.0 mm
07:10 AM 35.0°F1.7°C 19.1°F-7.2°C 52% 1.2 mph W1.9 kmh W 3.5 mph5.6 kmh 26.48 in896.7 mb - 0.00 in0.0 mm 0.04 in1.0 mm
07:15 AM 35.2°F1.8°C 18.4°F-7.6°C 50% 1.2 mph W1.9 kmh W 3.5 mph5.6 kmh 26.48 in896.7 mb - 0.00 in0.0 mm 0.04 in1.0 mm
07:20 AM 36.0°F2.2°C 18.7°F-7.4°C 49% Calm Calm 1.2 mph1.9 kmh 26.48 in896.7 mb - 0.00 in0.0 mm 0.04 in1.0 mm
07:25 AM 36.0°F2.2°C 19.1°F-7.2°C 50% Calm Calm -- 26.49 in897.1 mb - 0.00 in0.0 mm 0.04 in1.0 mm
07:30 AM 36.0°F2.2°C 17.2°F-8.2°C 46% 2.3 mph NW3.7 kmh NW 3.5 mph5.6 kmh 26.49 in897.1 mb - 0.00 in0.0 mm 0.04 in1.0 mm
07:35 AM 36.0°F2.2°C 19.1°F-7.2°C 50% Calm Calm 1.2 mph1.9 kmh 26.50 in897.4 mb - 0.00 in0.0 mm 0.04 in1.0 mm
07:40 AM 36.0°F2.2°C 16.2°F-8.8°C 44% 1.2 mph NW1.9 kmh NW 2.3 mph3.7 kmh 26.50 in897.4 mb - 0.00 in0.0 mm 0.04 in1.0 mm
07:45 AM 36.0°F2.2°C 16.7°F-8.5°C 45% 1.2 mph E1.9 kmh E 2.3 mph3.7 kmh 26.50 in897.4 mb - 0.00 in0.0 mm 0.04 in1.0 mm
07:50 AM 36.0°F2.2°C 18.7°F-7.4°C 49% Calm Calm 2.3 mph3.7 kmh 26.50 in897.4 mb - 0.00 in0.0 mm 0.04 in1.0 mm
07:55 AM 35.6°F2.0°C 18.3°F-7.6°C 49% Calm Calm 1.2 mph1.9 kmh 26.50 in897.4 mb - 0.00 in0.0 mm 0.04 in1.0 mm
08:00 AM 35.0°F1.7°C 17.7°F-7.9°C 49% Calm Calm 1.2 mph1.9 kmh 26.51 in897.7 mb - 0.00 in0.0 mm 0.04 in1.0 mm
08:10 AM 35.0°F1.7°C 17.3°F-8.2°C 48% 1.2 mph NE1.9 kmh NE 1.2 mph1.9 kmh 26.51 in897.7 mb - 0.00 in0.0 mm 0.04 in1.0 mm
08:15 AM 35.0°F1.7°C 16.3°F-8.7°C 46% Calm Calm -- 26.51 in897.7 mb - 0.00 in0.0 mm 0.04 in1.0 mm
08:20 AM 35.0°F1.7°C 16.8°F-8.4°C 47% Calm Calm -- 26.51 in897.7 mb - 0.00 in0.0 mm 0.04 in1.0 mm
08:25 AM 36.0°F2.2°C 16.2°F-8.8°C 44% 1.2 mph NNE1.9 kmh NNE 1.2 mph1.9 kmh 26.51 in897.7 mb - 0.00 in0.0 mm 0.04 in1.0 mm
08:30 AM 36.0°F2.2°C 15.6°F-9.1°C 43% Calm Calm -- 26.52 in898.1 mb - 0.00 in0.0 mm 0.04 in1.0 mm
08:35 AM 36.0°F2.2°C 14.5°F-9.7°C 41% 1.2 mph WNW1.9 kmh WNW 3.5 mph5.6 kmh 26.51 in897.7 mb - 0.00 in0.0 mm 0.04 in1.0 mm
08:40 AM 36.1°F2.3°C 14.1°F-9.9°C 40% 2.3 mph W3.7 kmh W 3.5 mph5.6 kmh 26.51 in897.7 mb - 0.00 in0.0 mm 0.04 in1.0 mm
08:45 AM 37.0°F2.8°C 16.5°F-8.6°C 43% 2.3 mph NW3.7 kmh NW 3.5 mph5.6 kmh 26.50 in897.4 mb - 0.00 in0.0 mm 0.04 in1.0 mm
08:50 AM 37.0°F2.8°C 16.0°F-8.9°C 42% 1.2 mph NE1.9 kmh NE 2.3 mph3.7 kmh 26.51 in897.7 mb - 0.00 in0.0 mm 0.04 in1.0 mm
08:55 AM 37.0°F2.8°C 15.5°F-9.2°C 41% Calm Calm 1.2 mph1.9 kmh 26.51 in897.7 mb - 0.00 in0.0 mm 0.04 in1.0 mm
09:00 AM 38.0°F3.3°C 17.5°F-8.1°C 43% Calm Calm 1.2 mph1.9 kmh 26.51 in897.7 mb - 0.00 in0.0 mm 0.04 in1.0 mm
09:10 AM 39.0°F3.9°C 17.3°F-8.2°C 41% 2.3 mph NW3.7 kmh NW 2.3 mph3.7 kmh 26.51 in897.7 mb - 0.00 in0.0 mm 0.04 in1.0 mm
09:15 AM 39.0°F3.9°C 17.3°F-8.2°C 41% Calm Calm 2.3 mph3.7 kmh 26.51 in897.7 mb - 0.00 in0.0 mm 0.04 in1.0 mm
09:20 AM 39.0°F3.9°C 17.3°F-8.2°C 41% 1.2 mph NW1.9 kmh NW 3.5 mph5.6 kmh 26.51 in897.7 mb - 0.00 in0.0 mm 0.04 in1.0 mm
09:25 AM 39.0°F3.9°C 16.7°F-8.5°C 40% 3.5 mph NW5.6 kmh NW 3.5 mph5.6 kmh 26.51 in897.7 mb - 0.00 in0.0 mm 0.04 in1.0 mm
09:30 AM 39.0°F3.9°C 17.3°F-8.2°C 41% Calm Calm -- 26.51 in897.7 mb - 0.00 in0.0 mm 0.04 in1.0 mm
09:35 AM 39.0°F3.9°C 16.7°F-8.5°C 40% Calm Calm -- 26.51 in897.7 mb - 0.00 in0.0 mm 0.04 in1.0 mm
09:40 AM 40.0°F4.4°C 19.3°F-7.1°C 43% Calm Calm -- 26.51 in897.7 mb - 0.00 in0.0 mm 0.04 in1.0 mm
09:45 AM 40.0°F4.4°C 15.8°F-9.0°C 37% 1.2 mph NNE1.9 kmh NNE 1.2 mph1.9 kmh 26.51 in897.7 mb - 0.00 in0.0 mm 0.04 in1.0 mm
09:50 AM 41.0°F5.0°C 16.7°F-8.5°C 37% 3.5 mph NE5.6 kmh NE 5.8 mph9.3 kmh 26.51 in897.7 mb - 0.00 in0.0 mm 0.04 in1.0 mm
09:55 AM 40.0°F4.4°C 14.5°F-9.7°C 35% 3.5 mph W5.6 kmh W 3.5 mph5.6 kmh 26.51 in897.7 mb - 0.01 in0.3 mm 0.05 in1.3 mm
10:00 AM 40.5°F4.7°C 16.3°F-8.7°C 37% 2.3 mph WNW3.7 kmh WNW 3.5 mph5.6 kmh 26.52 in898.1 mb - 0.01 in0.3 mm 0.05 in1.3 mm
10:10 AM 41.0°F5.0°C 17.9°F-7.8°C 39% 2.3 mph W3.7 kmh W 2.3 mph3.7 kmh 26.51 in897.7 mb - 0.01 in0.3 mm 0.05 in1.3 mm
10:15 AM 41.0°F5.0°C 18.5°F-7.5°C 40% 1.2 mph SE1.9 kmh SE 3.5 mph5.6 kmh 26.52 in898.1 mb - 0.01 in0.3 mm 0.05 in1.3 mm
10:20 AM 41.0°F5.0°C 17.9°F-7.8°C 39% 6.9 mph SW11.1 kmh SW 11.5 mph18.5 kmh 26.51 in897.7 mb - 0.01 in0.3 mm 0.05 in1.3 mm
10:25 AM 41.0°F5.0°C 18.5°F-7.5°C 40% 1.2 mph SW1.9 kmh SW 1.2 mph1.9 kmh 26.52 in898.1 mb - 0.01 in0.3 mm 0.05 in1.3 mm
10:30 AM 43.0°F6.1°C 20.9°F-6.2°C 41% Calm Calm -- 26.52 in898.1 mb - 0.01 in0.3 mm 0.05 in1.3 mm
10:35 AM 45.0°F7.2°C 22.7°F-5.2°C 41% Calm Calm -- 26.52 in898.1 mb - 0.02 in0.5 mm 0.06 in1.5 mm
10:40 AM 45.8°F7.7°C 22.2°F-5.4°C 39% 3.5 mph SW5.6 kmh SW 5.8 mph9.3 kmh 26.51 in897.7 mb - 0.02 in0.5 mm 0.06 in1.5 mm
10:45 AM 46.0°F7.8°C 21.8°F-5.7°C 38% 3.5 mph SW5.6 kmh SW 5.8 mph9.3 kmh 26.51 in897.7 mb - 0.02 in0.5 mm 0.06 in1.5 mm
10:50 AM 46.0°F7.8°C 21.1°F-6.1°C 37% 1.2 mph S1.9 kmh S 2.3 mph3.7 kmh 26.52 in898.1 mb - 0.02 in0.5 mm 0.06 in1.5 mm
10:55 AM 46.0°F7.8°C 23.6°F-4.7°C 41% Calm Calm 1.2 mph1.9 kmh 26.52 in898.1 mb - 0.01 in0.3 mm 0.06 in1.5 mm
11:00 AM 46.0°F7.8°C 20.5°F-6.4°C 36% 2.3 mph WNW3.7 kmh WNW 3.5 mph5.6 kmh 26.53 in898.4 mb - 0.01 in0.3 mm 0.06 in1.5 mm
11:10 AM 47.0°F8.3°C 22.0°F-5.6°C 37% 2.3 mph SE3.7 kmh SE 2.3 mph3.7 kmh 26.53 in898.4 mb - 0.01 in0.3 mm 0.06 in1.5 mm
11:15 AM 47.0°F8.3°C 22.7°F-5.2°C 38% 1.2 mph N1.9 kmh N 2.3 mph3.7 kmh 26.53 in898.4 mb - 0.01 in0.3 mm 0.06 in1.5 mm
11:20 AM 46.0°F7.8°C 20.5°F-6.4°C 36% 1.2 mph NE1.9 kmh NE 2.3 mph3.7 kmh 26.53 in898.4 mb - 0.01 in0.3 mm 0.06 in1.5 mm
11:25 AM 46.0°F7.8°C 20.5°F-6.4°C 36% 2.3 mph W3.7 kmh W 3.5 mph5.6 kmh 26.53 in898.4 mb - 0.01 in0.3 mm 0.06 in1.5 mm
11:30 AM 46.0°F7.8°C 21.1°F-6.1°C 37% 3.5 mph WSW5.6 kmh WSW 3.5 mph5.6 kmh 26.53 in898.4 mb - 0.01 in0.3 mm 0.06 in1.5 mm
11:35 AM 47.0°F8.3°C 22.7°F-5.2°C 38% 1.2 mph ENE1.9 kmh ENE 2.3 mph3.7 kmh 26.52 in898.1 mb - 0.00 in0.0 mm 0.06 in1.5 mm
11:40 AM 47.0°F8.3°C 23.3°F-4.8°C 39% 1.2 mph E1.9 kmh E 2.3 mph3.7 kmh 26.53 in898.4 mb - 0.00 in0.0 mm 0.06 in1.5 mm
11:45 AM 47.0°F8.3°C 20.7°F-6.3°C 35% 1.2 mph NE1.9 kmh NE 2.3 mph3.7 kmh 26.53 in898.4 mb - 0.00 in0.0 mm 0.06 in1.5 mm
11:50 AM 47.0°F8.3°C 23.9°F-4.5°C 40% 1.2 mph E1.9 kmh E 1.2 mph1.9 kmh 26.53 in898.4 mb - 0.00 in0.0 mm 0.06 in1.5 mm
11:55 AM 47.0°F8.3°C 20.0°F-6.7°C 34% 3.5 mph S5.6 kmh S 3.5 mph5.6 kmh 26.52 in898.1 mb - 0.00 in0.0 mm 0.06 in1.5 mm
12:00 PM 48.0°F8.9°C 18.8°F-7.3°C 31% 2.3 mph E3.7 kmh E 3.5 mph5.6 kmh 26.51 in897.7 mb - 0.00 in0.0 mm 0.06 in1.5 mm
12:10 PM 48.0°F8.9°C 19.5°F-6.9°C 32% 2.3 mph SW3.7 kmh SW 5.8 mph9.3 kmh 26.50 in897.4 mb - 0.00 in0.0 mm 0.06 in1.5 mm
12:15 PM 49.0°F9.4°C 21.1°F-6.1°C 33% 1.2 mph WSW1.9 kmh WSW 2.3 mph3.7 kmh 26.50 in897.4 mb - 0.00 in0.0 mm 0.06 in1.5 mm
12:20 PM 49.0°F9.4°C 18.9°F-7.3°C 30% 2.3 mph N3.7 kmh N 3.5 mph5.6 kmh 26.50 in897.4 mb - 0.00 in0.0 mm 0.06 in1.5 mm
12:25 PM 50.0°F10.0°C 18.1°F-7.7°C 28% 1.2 mph ENE1.9 kmh ENE 2.3 mph3.7 kmh 26.51 in897.7 mb - 0.00 in0.0 mm 0.06 in1.5 mm
12:30 PM 50.0°F10.0°C 17.3°F-8.2°C 27% 2.3 mph WSW3.7 kmh WSW 3.5 mph5.6 kmh 26.50 in897.4 mb - 0.00 in0.0 mm 0.06 in1.5 mm
12:35 PM 49.0°F9.4°C 17.3°F-8.2°C 28% 3.5 mph WSW5.6 kmh WSW 3.5 mph5.6 kmh 26.51 in897.7 mb - 0.00 in0.0 mm 0.06 in1.5 mm
12:40 PM 49.0°F9.4°C 18.1°F-7.7°C 29% 2.3 mph NNW3.7 kmh NNW 2.3 mph3.7 kmh 26.51 in897.7 mb - 0.00 in0.0 mm 0.06 in1.5 mm
12:45 PM 49.0°F9.4°C 17.3°F-8.2°C 28% 4.6 mph SE7.4 kmh SE 8.1 mph13.0 kmh 26.50 in897.4 mb - 0.00 in0.0 mm 0.06 in1.5 mm
12:50 PM 49.2°F9.6°C 16.6°F-8.6°C 27% 4.6 mph SE7.4 kmh SE 8.1 mph13.0 kmh 26.50 in897.4 mb - 0.00 in0.0 mm 0.06 in1.5 mm
12:55 PM 50.0°F10.0°C 18.1°F-7.7°C 28% 1.2 mph ENE1.9 kmh ENE 2.3 mph3.7 kmh 26.50 in897.4 mb - 0.00 in0.0 mm 0.06 in1.5 mm
01:00 PM 49.0°F9.4°C 18.9°F-7.3°C 30% 2.3 mph WSW3.7 kmh WSW 3.5 mph5.6 kmh 26.50 in897.4 mb - 0.00 in0.0 mm 0.06 in1.5 mm
01:10 PM 50.0°F10.0°C 18.1°F-7.7°C 28% 1.2 mph NE1.9 kmh NE 1.2 mph1.9 kmh 26.52 in898.1 mb - 0.00 in0.0 mm 0.06 in1.5 mm
01:15 PM 50.0°F10.0°C 14.6°F-9.7°C 24% Calm Calm -- 26.50 in897.4 mb - 0.00 in0.0 mm 0.06 in1.5 mm
01:20 PM 49.0°F9.4°C 13.7°F-10.2°C 24% Calm Calm -- 26.50 in897.4 mb - 0.00 in0.0 mm 0.06 in1.5 mm
01:25 PM 49.9°F9.9°C 11.5°F-11.4°C 21% 3.5 mph NE5.6 kmh NE 9.2 mph14.8 kmh 26.50 in897.4 mb - 0.00 in0.0 mm 0.06 in1.5 mm
01:30 PM 50.0°F10.0°C 11.5°F-11.4°C 21% 4.6 mph N7.4 kmh N 9.2 mph14.8 kmh 26.50 in897.4 mb - 0.00 in0.0 mm 0.06 in1.5 mm
01:35 PM 50.0°F10.0°C 12.6°F-10.8°C 22% 5.8 mph SW9.3 kmh SW 9.2 mph14.8 kmh 26.50 in897.4 mb - 0.00 in0.0 mm 0.06 in1.5 mm
01:40 PM 50.0°F10.0°C 16.4°F-8.7°C 26% 2.3 mph SW3.7 kmh SW 3.5 mph5.6 kmh 26.50 in897.4 mb - 0.00 in0.0 mm 0.06 in1.5 mm
01:45 PM 50.0°F10.0°C 13.6°F-10.2°C 23% 2.3 mph SW3.7 kmh SW 3.5 mph5.6 kmh 26.51 in897.7 mb - 0.00 in0.0 mm 0.06 in1.5 mm
01:50 PM 50.0°F10.0°C 14.6°F-9.7°C 24% 2.3 mph N3.7 kmh N 3.5 mph5.6 kmh 26.50 in897.4 mb - 0.00 in0.0 mm 0.06 in1.5 mm
01:55 PM 50.0°F10.0°C 13.6°F-10.2°C 23% 1.2 mph NNE1.9 kmh NNE 1.2 mph1.9 kmh 26.50 in897.4 mb - 0.00 in0.0 mm 0.06 in1.5 mm
02:00 PM 51.0°F10.6°C 14.4°F-9.8°C 23% 3.5 mph E5.6 kmh E 3.5 mph5.6 kmh 26.49 in897.1 mb - 0.00 in0.0 mm 0.06 in1.5 mm
02:10 PM 49.0°F9.4°C 10.7°F-11.8°C 21% 4.6 mph SSW7.4 kmh SSW 6.9 mph11.1 kmh 26.49 in897.1 mb - 0.00 in0.0 mm 0.06 in1.5 mm
02:15 PM 49.0°F9.4°C 11.7°F-11.3°C 22% 5.8 mph S9.3 kmh S 6.9 mph11.1 kmh 26.49 in897.1 mb - 0.00 in0.0 mm 0.06 in1.5 mm
02:20 PM 50.0°F10.0°C 11.5°F-11.4°C 21% 3.5 mph E5.6 kmh E 3.5 mph5.6 kmh 26.49 in897.1 mb - 0.00 in0.0 mm 0.06 in1.5 mm
02:25 PM 48.0°F8.9°C 9.9°F-12.3°C 21% 3.5 mph S5.6 kmh S 5.8 mph9.3 kmh 26.50 in897.4 mb - 0.00 in0.0 mm 0.06 in1.5 mm
02:30 PM 48.0°F8.9°C 9.9°F-12.3°C 21% 1.2 mph WSW1.9 kmh WSW 3.5 mph5.6 kmh 26.49 in897.1 mb - 0.00 in0.0 mm 0.06 in1.5 mm
02:35 PM 49.0°F9.4°C 10.7°F-11.8°C 21% 3.5 mph SW5.6 kmh SW 5.8 mph9.3 kmh 26.49 in897.1 mb - 0.00 in0.0 mm 0.06 in1.5 mm
02:40 PM 49.0°F9.4°C 10.7°F-11.8°C 21% 2.3 mph SW3.7 kmh SW 3.5 mph5.6 kmh 26.49 in897.1 mb - 0.00 in0.0 mm 0.06 in1.5 mm
02:45 PM 49.0°F9.4°C 11.7°F-11.3°C 22% 2.3 mph E3.7 kmh E 2.3 mph3.7 kmh 26.50 in897.4 mb - 0.00 in0.0 mm 0.06 in1.5 mm
02:50 PM 49.0°F9.4°C 12.7°F-10.7°C 23% 2.3 mph WSW3.7 kmh WSW 3.5 mph5.6 kmh 26.50 in897.4 mb - 0.00 in0.0 mm 0.06 in1.5 mm
02:55 PM 49.0°F9.4°C 12.7°F-10.7°C 23% 2.3 mph WSW3.7 kmh WSW 5.8 mph9.3 kmh 26.50 in897.4 mb - 0.00 in0.0 mm 0.06 in1.5 mm
03:00 PM 49.0°F9.4°C 11.7°F-11.3°C 22% 3.5 mph SE5.6 kmh SE 5.8 mph9.3 kmh 26.50 in897.4 mb - 0.00 in0.0 mm 0.06 in1.5 mm
03:10 PM 49.0°F9.4°C 11.7°F-11.3°C 22% 3.5 mph SW5.6 kmh SW 5.8 mph9.3 kmh 26.51 in897.7 mb - 0.00 in0.0 mm 0.06 in1.5 mm
03:15 PM 48.0°F8.9°C 12.9°F-10.6°C 24% 2.3 mph W3.7 kmh W 2.3 mph3.7 kmh 26.51 in897.7 mb - 0.00 in0.0 mm 0.06 in1.5 mm
03:20 PM 48.0°F8.9°C 11.9°F-11.2°C 23% 1.2 mph S1.9 kmh S 2.3 mph3.7 kmh 26.50 in897.4 mb - 0.00 in0.0 mm 0.06 in1.5 mm
03:25 PM 49.0°F9.4°C 14.7°F-9.6°C 25% 1.2 mph NE1.9 kmh NE 1.2 mph1.9 kmh 26.51 in897.7 mb - 0.00 in0.0 mm 0.06 in1.5 mm
03:30 PM 49.0°F9.4°C 14.7°F-9.6°C 25% 1.2 mph NE1.9 kmh NE 2.3 mph3.7 kmh 26.50 in897.4 mb - 0.00 in0.0 mm 0.06 in1.5 mm
03:35 PM 49.0°F9.4°C 14.7°F-9.6°C 25% 1.2 mph NNE1.9 kmh NNE 2.3 mph3.7 kmh 26.50 in897.4 mb - 0.00 in0.0 mm 0.06 in1.5 mm
03:40 PM 49.0°F9.4°C 13.7°F-10.2°C 24% Calm Calm 2.3 mph3.7 kmh 26.50 in897.4 mb - 0.00 in0.0 mm 0.06 in1.5 mm
03:45 PM 49.0°F9.4°C 11.7°F-11.3°C 22% 2.3 mph W3.7 kmh W 3.5 mph5.6 kmh 26.51 in897.7 mb - 0.00 in0.0 mm 0.06 in1.5 mm
03:50 PM 49.0°F9.4°C 14.7°F-9.6°C 25% 2.3 mph SE3.7 kmh SE 3.5 mph5.6 kmh 26.51 in897.7 mb - 0.00 in0.0 mm 0.06 in1.5 mm
03:55 PM 48.0°F8.9°C 11.9°F-11.2°C 23% 2.3 mph ESE3.7 kmh ESE 2.3 mph3.7 kmh 26.51 in897.7 mb - 0.00 in0.0 mm 0.06 in1.5 mm
04:00 PM 48.0°F8.9°C 13.8°F-10.1°C 25% 2.3 mph ENE3.7 kmh ENE 2.3 mph3.7 kmh 26.51 in897.7 mb - 0.00 in0.0 mm 0.06 in1.5 mm
04:10 PM 49.0°F9.4°C 12.7°F-10.7°C 23% 3.5 mph SSW5.6 kmh SSW 3.5 mph5.6 kmh 26.52 in898.1 mb - 0.00 in0.0 mm 0.06 in1.5 mm
04:15 PM 48.6°F9.2°C 12.4°F-10.9°C 23% 3.5 mph SW5.6 kmh SW 3.5 mph5.6 kmh 26.52 in898.1 mb - 0.00 in0.0 mm 0.06 in1.5 mm
04:20 PM 48.0°F8.9°C 10.9°F-11.7°C 22% 3.5 mph W5.6 kmh W 3.5 mph5.6 kmh 26.53 in898.4 mb - 0.00 in0.0 mm 0.06 in1.5 mm
04:25 PM 49.0°F9.4°C 10.7°F-11.8°C 21% 1.2 mph NW1.9 kmh NW 2.3 mph3.7 kmh 26.53 in898.4 mb - 0.00 in0.0 mm 0.06 in1.5 mm
04:30 PM 48.0°F8.9°C 9.9°F-12.3°C 21% 1.2 mph W1.9 kmh W 2.3 mph3.7 kmh 26.53 in898.4 mb - 0.00 in0.0 mm 0.06 in1.5 mm
04:35 PM 47.0°F8.3°C 11.1°F-11.6°C 23% 2.3 mph ESE3.7 kmh ESE 3.5 mph5.6 kmh 26.54 in898.7 mb - 0.00 in0.0 mm 0.06 in1.5 mm
04:40 PM 46.0°F7.8°C 13.0°F-10.6°C 26% 1.2 mph NE1.9 kmh NE 2.3 mph3.7 kmh 26.54 in898.7 mb - 0.00 in0.0 mm 0.06 in1.5 mm
04:45 PM 46.0°F7.8°C 11.2°F-11.6°C 24% Calm Calm 1.2 mph1.9 kmh 26.53 in898.4 mb - 0.00 in0.0 mm 0.06 in1.5 mm
04:50 PM 43.0°F6.1°C 10.4°F-12.0°C 26% 2.3 mph WSW3.7 kmh WSW 3.5 mph5.6 kmh 26.55 in899.1 mb - 0.00 in0.0 mm 0.06 in1.5 mm
04:55 PM 42.3°F5.7°C 9.8°F-12.3°C 26% 1.2 mph NW1.9 kmh NW 3.5 mph5.6 kmh 26.56 in899.4 mb - 0.00 in0.0 mm 0.06 in1.5 mm
05:00 PM 42.0°F5.6°C 9.5°F-12.5°C 26% 1.2 mph NNE1.9 kmh NNE 3.5 mph5.6 kmh 26.56 in899.4 mb - 0.00 in0.0 mm 0.06 in1.5 mm
05:10 PM 41.0°F5.0°C 11.1°F-11.6°C 29% Calm Calm -- 26.56 in899.4 mb - 0.00 in0.0 mm 0.06 in1.5 mm
05:15 PM 41.0°F5.0°C 11.9°F-11.2°C 30% Calm Calm -- 26.57 in899.8 mb - 0.00 in0.0 mm 0.06 in1.5 mm
05:20 PM 40.0°F4.4°C 9.5°F-12.5°C 28% 3.5 mph W5.6 kmh W 3.5 mph5.6 kmh 26.57 in899.8 mb - 0.00 in0.0 mm 0.06 in1.5 mm
05:25 PM 40.0°F4.4°C 10.3°F-12.1°C 29% Calm Calm -- 26.57 in899.8 mb - 0.00 in0.0 mm 0.06 in1.5 mm
05:30 PM 40.0°F4.4°C 11.0°F-11.7°C 30% Calm Calm 1.2 mph1.9 kmh 26.58 in900.1 mb - 0.00 in0.0 mm 0.06 in1.5 mm
05:35 PM 40.0°F4.4°C 10.3°F-12.1°C 29% 2.3 mph WSW3.7 kmh WSW 3.5 mph5.6 kmh 26.58 in900.1 mb - 0.00 in0.0 mm 0.06 in1.5 mm
05:40 PM 40.0°F4.4°C 10.3°F-12.1°C 29% 2.3 mph WSW3.7 kmh WSW 3.5 mph5.6 kmh 26.58 in900.1 mb - 0.00 in0.0 mm 0.06 in1.5 mm
05:45 PM 40.0°F4.4°C 10.3°F-12.1°C 29% Calm Calm 1.2 mph1.9 kmh 26.59 in900.4 mb - 0.00 in0.0 mm 0.06 in1.5 mm
05:50 PM 39.0°F3.9°C 9.4°F-12.6°C 29% Calm Calm 1.2 mph1.9 kmh 26.59 in900.4 mb - 0.00 in0.0 mm 0.06 in1.5 mm
05:55 PM 39.0°F3.9°C 10.9°F-11.7°C 31% Calm Calm -- 26.59 in900.4 mb - 0.00 in0.0 mm 0.06 in1.5 mm
06:00 PM 39.0°F3.9°C 10.9°F-11.7°C 31% 1.2 mph ENE1.9 kmh ENE 2.3 mph3.7 kmh 26.59 in900.4 mb - 0.00 in0.0 mm 0.06 in1.5 mm
06:10 PM 39.0°F3.9°C 11.6°F-11.3°C 32% Calm Calm -- 26.59 in900.4 mb - 0.00 in0.0 mm 0.06 in1.5 mm
06:15 PM 39.0°F3.9°C 10.1°F-12.2°C 30% 1.2 mph W1.9 kmh W 2.3 mph3.7 kmh 26.60 in900.8 mb - 0.00 in0.0 mm 0.06 in1.5 mm
06:20 PM 38.7°F3.7°C 10.6°F-11.9°C 31% 1.2 mph NW1.9 kmh NW 2.3 mph3.7 kmh 26.60 in900.8 mb - 0.00 in0.0 mm 0.06 in1.5 mm
06:25 PM 38.0°F3.3°C 11.4°F-11.4°C 33% Calm Calm -- 26.61 in901.1 mb - 0.00 in0.0 mm 0.06 in1.5 mm
06:30 PM 38.0°F3.3°C 10.7°F-11.8°C 32% Calm Calm -- 26.61 in901.1 mb - 0.00 in0.0 mm 0.06 in1.5 mm
06:35 PM 38.0°F3.3°C 10.7°F-11.8°C 32% Calm Calm -- 26.60 in900.8 mb - 0.00 in0.0 mm 0.06 in1.5 mm
06:40 PM 38.0°F3.3°C 10.0°F-12.2°C 31% Calm Calm 1.2 mph1.9 kmh 26.62 in901.5 mb - 0.00 in0.0 mm 0.06 in1.5 mm
06:45 PM 38.0°F3.3°C 10.7°F-11.8°C 32% Calm Calm -- 26.61 in901.1 mb - 0.00 in0.0 mm 0.06 in1.5 mm
06:50 PM 37.0°F2.8°C 11.2°F-11.6°C 34% 1.2 mph NNW1.9 kmh NNW 1.2 mph1.9 kmh 26.62 in901.5 mb - 0.00 in0.0 mm 0.06 in1.5 mm
06:55 PM 37.0°F2.8°C 11.8°F-11.2°C 35% 1.2 mph NW1.9 kmh NW 1.2 mph1.9 kmh 26.63 in901.8 mb - 0.00 in0.0 mm 0.06 in1.5 mm
07:00 PM 37.0°F2.8°C 11.2°F-11.6°C 34% 1.2 mph NW1.9 kmh NW 1.2 mph1.9 kmh 26.63 in901.8 mb - 0.00 in0.0 mm 0.06 in1.5 mm
07:10 PM 37.0°F2.8°C 11.2°F-11.6°C 34% Calm Calm -- 26.63 in901.8 mb - 0.00 in0.0 mm 0.06 in1.5 mm
07:15 PM 37.0°F2.8°C 10.5°F-11.9°C 33% 2.3 mph NW3.7 kmh NW 3.5 mph5.6 kmh 26.63 in901.8 mb - 0.00 in0.0 mm 0.06 in1.5 mm
07:20 PM 37.0°F2.8°C 11.2°F-11.6°C 34% Calm Calm -- 26.64 in902.1 mb - 0.00 in0.0 mm 0.06 in1.5 mm
07:25 PM 37.0°F2.8°C 11.2°F-11.6°C 34% Calm Calm 1.2 mph1.9 kmh 26.64 in902.1 mb - 0.00 in0.0 mm 0.06 in1.5 mm
07:30 PM 37.0°F2.8°C 11.8°F-11.2°C 35% Calm Calm -- 26.64 in902.1 mb - 0.00 in0.0 mm 0.06 in1.5 mm
07:35 PM 37.0°F2.8°C 11.2°F-11.6°C 34% Calm Calm -- 26.64 in902.1 mb - 0.00 in0.0 mm 0.06 in1.5 mm
07:40 PM 36.0°F2.2°C 12.2°F-11.0°C 37% Calm Calm 1.2 mph1.9 kmh 26.64 in902.1 mb - 0.00 in0.0 mm 0.06 in1.5 mm
07:45 PM 36.0°F2.2°C 11.6°F-11.3°C 36% Calm Calm 1.2 mph1.9 kmh 26.64 in902.1 mb - 0.00 in0.0 mm 0.06 in1.5 mm
07:50 PM 36.0°F2.2°C 11.0°F-11.7°C 35% Calm Calm -- 26.64 in902.1 mb - 0.00 in0.0 mm 0.06 in1.5 mm
07:55 PM 36.0°F2.2°C 11.0°F-11.7°C 35% Calm Calm -- 26.64 in902.1 mb - 0.00 in0.0 mm 0.06 in1.5 mm
08:00 PM 36.0°F2.2°C 12.2°F-11.0°C 37% 1.2 mph N1.9 kmh N 1.2 mph1.9 kmh 26.64 in902.1 mb - 0.00 in0.0 mm 0.06 in1.5 mm
08:10 PM 36.0°F2.2°C 11.6°F-11.3°C 36% Calm Calm 1.2 mph1.9 kmh 26.66 in902.8 mb - 0.00 in0.0 mm 0.06 in1.5 mm
08:15 PM 36.0°F2.2°C 11.6°F-11.3°C 36% Calm Calm -- 26.65 in902.5 mb - 0.00 in0.0 mm 0.06 in1.5 mm
08:20 PM 36.0°F2.2°C 11.0°F-11.7°C 35% Calm Calm -- 26.65 in902.5 mb - 0.00 in0.0 mm 0.06 in1.5 mm
08:25 PM 36.0°F2.2°C 11.6°F-11.3°C 36% Calm Calm -- 26.65 in902.5 mb - 0.00 in0.0 mm 0.06 in1.5 mm
08:30 PM 35.0°F1.7°C 11.9°F-11.2°C 38% 1.2 mph NNW1.9 kmh NNW 1.2 mph1.9 kmh 26.65 in902.5 mb - 0.00 in0.0 mm 0.06 in1.5 mm
08:35 PM 35.0°F1.7°C 11.3°F-11.5°C 37% Calm Calm 1.2 mph1.9 kmh 26.66 in902.8 mb - 0.00 in0.0 mm 0.06 in1.5 mm
08:40 PM 35.0°F1.7°C 11.3°F-11.5°C 37% Calm Calm 1.2 mph1.9 kmh 26.66 in902.8 mb - 0.00 in0.0 mm 0.06 in1.5 mm
08:45 PM 35.0°F1.7°C 10.7°F-11.8°C 36% Calm Calm 1.2 mph1.9 kmh 26.66 in902.8 mb - 0.00 in0.0 mm 0.06 in1.5 mm
08:50 PM 35.0°F1.7°C 12.5°F-10.8°C 39% Calm Calm 1.2 mph1.9 kmh 26.66 in902.8 mb - 0.00 in0.0 mm 0.06 in1.5 mm
08:55 PM 35.0°F1.7°C 11.3°F-11.5°C 37% Calm Calm -- 26.66 in902.8 mb - 0.00 in0.0 mm 0.06 in1.5 mm
09:00 PM 35.0°F1.7°C 11.3°F-11.5°C 37% Calm Calm -- 26.66 in902.8 mb - 0.00 in0.0 mm 0.06 in1.5 mm
09:10 PM 36.0°F2.2°C 10.3°F-12.1°C 34% Calm Calm -- 26.67 in903.2 mb - 0.00 in0.0 mm 0.06 in1.5 mm
09:15 PM 36.0°F2.2°C 9.6°F-12.4°C 33% 1.2 mph NW1.9 kmh NW 2.3 mph3.7 kmh 26.67 in903.2 mb - 0.00 in0.0 mm 0.06 in1.5 mm
09:20 PM 36.0°F2.2°C 10.3°F-12.1°C 34% Calm Calm 2.3 mph3.7 kmh 26.67 in903.2 mb - 0.00 in0.0 mm 0.06 in1.5 mm
09:25 PM 36.0°F2.2°C 10.3°F-12.1°C 34% Calm Calm 1.2 mph1.9 kmh 26.67 in903.2 mb - 0.00 in0.0 mm 0.06 in1.5 mm
09:30 PM 36.0°F2.2°C 11.0°F-11.7°C 35% 1.2 mph N1.9 kmh N 1.2 mph1.9 kmh 26.67 in903.2 mb - 0.00 in0.0 mm 0.06 in1.5 mm
09:35 PM 35.0°F1.7°C 10.1°F-12.2°C 35% Calm Calm -- 26.67 in903.2 mb - 0.00 in0.0 mm 0.06 in1.5 mm
09:40 PM 35.0°F1.7°C 9.4°F-12.6°C 34% Calm Calm 1.2 mph1.9 kmh 26.67 in903.2 mb - 0.00 in0.0 mm 0.06 in1.5 mm
09:45 PM 35.0°F1.7°C 10.1°F-12.2°C 35% Calm Calm -- 26.68 in903.5 mb - 0.00 in0.0 mm 0.06 in1.5 mm
09:50 PM 36.0°F2.2°C 11.0°F-11.7°C 35% 2.3 mph E3.7 kmh E 3.5 mph5.6 kmh 26.67 in903.2 mb - 0.00 in0.0 mm 0.06 in1.5 mm
09:55 PM 36.0°F2.2°C 10.3°F-12.1°C 34% Calm Calm -- 26.66 in902.8 mb - 0.00 in0.0 mm 0.06 in1.5 mm
10:00 PM 36.0°F2.2°C 10.3°F-12.1°C 34% Calm Calm -- 26.67 in903.2 mb - 0.00 in0.0 mm 0.06 in1.5 mm
10:10 PM 35.7°F2.1°C 10.0°F-12.2°C 34% Calm Calm 1.2 mph1.9 kmh 26.67 in903.2 mb - 0.00 in0.0 mm 0.06 in1.5 mm
10:15 PM 36.0°F2.2°C 11.0°F-11.7°C 35% Calm Calm 1.2 mph1.9 kmh 26.67 in903.2 mb - 0.00 in0.0 mm 0.06 in1.5 mm
10:20 PM 36.0°F2.2°C 9.6°F-12.4°C 33% 1.2 mph E1.9 kmh E 1.2 mph1.9 kmh 26.67 in903.2 mb - 0.00 in0.0 mm 0.06 in1.5 mm
10:25 PM 36.0°F2.2°C 10.3°F-12.1°C 34% 1.2 mph NW1.9 kmh NW 2.3 mph3.7 kmh 26.67 in903.2 mb - 0.00 in0.0 mm 0.06 in1.5 mm
10:30 PM 36.0°F2.2°C 10.3°F-12.1°C 34% 1.2 mph NE1.9 kmh NE 2.3 mph3.7 kmh 26.67 in903.2 mb - 0.00 in0.0 mm 0.06 in1.5 mm
10:35 PM 36.0°F2.2°C 9.6°F-12.4°C 33% 1.2 mph SW1.9 kmh SW 2.3 mph3.7 kmh 26.67 in903.2 mb - 0.00 in0.0 mm 0.06 in1.5 mm
10:40 PM 35.0°F1.7°C 8.7°F-12.9°C 33% 3.5 mph WSW5.6 kmh WSW 3.5 mph5.6 kmh 26.67 in903.2 mb - 0.00 in0.0 mm 0.06 in1.5 mm
10:45 PM 35.0°F1.7°C 9.4°F-12.6°C 34% 1.2 mph NE1.9 kmh NE 1.2 mph1.9 kmh 26.66 in902.8 mb - 0.00 in0.0 mm 0.06 in1.5 mm
10:50 PM 35.0°F1.7°C 9.4°F-12.6°C 34% Calm Calm 1.2 mph1.9 kmh 26.66 in902.8 mb - 0.00 in0.0 mm 0.06 in1.5 mm
10:55 PM 35.0°F1.7°C 10.1°F-12.2°C 35% 2.3 mph NE3.7 kmh NE 2.3 mph3.7 kmh 26.67 in903.2 mb - 0.00 in0.0 mm 0.06 in1.5 mm
11:00 PM 35.0°F1.7°C 10.1°F-12.2°C 35% 1.2 mph NE1.9 kmh NE 2.3 mph3.7 kmh 26.66 in902.8 mb - 0.00 in0.0 mm 0.06 in1.5 mm
11:10 PM 35.0°F1.7°C 9.4°F-12.6°C 34% Calm Calm -- 26.67 in903.2 mb - 0.00 in0.0 mm 0.06 in1.5 mm
11:15 PM 35.0°F1.7°C 10.1°F-12.2°C 35% Calm Calm -- 26.67 in903.2 mb - 0.00 in0.0 mm 0.06 in1.5 mm
11:20 PM 35.0°F1.7°C 10.1°F-12.2°C 35% Calm Calm -- 26.66 in902.8 mb - 0.00 in0.0 mm 0.06 in1.5 mm
11:25 PM 35.0°F1.7°C 10.7°F-11.8°C 36% Calm Calm 1.2 mph1.9 kmh 26.66 in902.8 mb - 0.00 in0.0 mm 0.06 in1.5 mm
11:30 PM 35.0°F1.7°C 10.1°F-12.2°C 35% 2.3 mph WSW3.7 kmh WSW 3.5 mph5.6 kmh 26.66 in902.8 mb - 0.00 in0.0 mm 0.06 in1.5 mm
11:35 PM 35.0°F1.7°C 10.1°F-12.2°C 35% Calm Calm -- 26.67 in903.2 mb - 0.00 in0.0 mm 0.06 in1.5 mm
11:40 PM 35.0°F1.7°C 10.7°F-11.8°C 36% 1.2 mph NE1.9 kmh NE 1.2 mph1.9 kmh 26.66 in902.8 mb - 0.00 in0.0 mm 0.06 in1.5 mm
11:45 PM 35.0°F1.7°C 9.4°F-12.6°C 34% Calm Calm 1.2 mph1.9 kmh 26.66 in902.8 mb - 0.00 in0.0 mm 0.06 in1.5 mm
11:50 PM 35.0°F1.7°C 9.4°F-12.6°C 34% 1.2 mph WSW1.9 kmh WSW 5.8 mph9.3 kmh 26.66 in902.8 mb - 0.00 in0.0 mm 0.06 in1.5 mm
11:55 PM 35.0°F1.7°C 9.4°F-12.6°C 34% 3.5 mph SW5.6 kmh SW 5.8 mph9.3 kmh 26.67 in903.2 mb - 0.00 in0.0 mm 0.06 in1.5 mm